Time;durP1;ratioP1;P1;durP2;ratioP2;P2;SDS_P1;SDS_P2;PMS_P1;PMS_P2;Temp;Humidity;BMP_temperature;BMP_pressure;BME280_temperature;BME280_humidity;BME280_pressure;Samples;Min_cycle;Max_cycle;Signal;HPM_P1;HPM_P2
2021/08/16 00:00:37;;;;;;;7.20;4.07;;;18.20;99.90;;;;;;5004919;28;20971;-46
2021/08/16 00:03:04;;;;;;;8.43;3.83;;;18.20;99.90;;;;;;5024953;28;20203;-45
2021/08/16 00:05:31;;;;;;;9.77;4.33;;;18.10;99.90;;;;;;5021531;28;20204;-45
2021/08/16 00:07:58;;;;;;;6.40;3.63;;;18.10;99.90;;;;;;5024056;28;20671;-46
2021/08/16 00:10:24;;;;;;;7.03;3.53;;;18.10;99.90;;;;;;5021515;28;20235;-48
2021/08/16 00:12:51;;;;;;;7.37;3.97;;;18.00;99.90;;;;;;5020524;28;20196;-46
2021/08/16 00:15:18;;;;;;;7.53;3.47;;;18.10;99.90;;;;;;5020571;28;20287;-47
2021/08/16 00:17:46;;;;;;;9.47;4.33;;;18.00;99.90;;;;;;5010087;28;20779;-46
2021/08/16 00:20:12;;;;;;;5.33;3.60;;;18.00;99.90;;;;;;5021580;28;20771;-46
2021/08/16 00:22:39;;;;;;;6.77;4.13;;;18.00;99.90;;;;;;5020874;28;20195;-46
2021/08/16 00:25:06;;;;;;;5.17;3.60;;;18.00;99.90;;;;;;5020250;28;20203;-47
2021/08/16 00:27:34;;;;;;;7.80;3.97;;;18.00;99.90;;;;;;5021001;28;20200;-48
2021/08/16 00:30:01;;;;;;;8.60;4.03;;;17.90;99.90;;;;;;5024031;28;20311;-46
2021/08/16 00:32:27;;;;;;;6.60;3.73;;;17.90;99.90;;;;;;5006174;28;20214;-49
2021/08/16 00:34:55;;;;;;;8.00;4.60;;;17.90;99.90;;;;;;5023620;28;20204;-45
2021/08/16 00:37:22;;;;;;;6.37;3.90;;;17.90;99.90;;;;;;5023008;28;20200;-45
2021/08/16 00:39:49;;;;;;;9.10;3.97;;;17.80;99.90;;;;;;5017723;28;20223;-46
2021/08/16 00:42:15;;;;;;;4.23;3.53;;;17.80;99.90;;;;;;5024290;28;20200;-47
2021/08/16 00:44:42;;;;;;;8.57;3.73;;;17.80;99.90;;;;;;5020687;28;20192;-46
2021/08/16 00:47:09;;;;;;;8.93;3.83;;;17.80;99.90;;;;;;5008697;28;20532;-45
2021/08/16 00:49:36;;;;;;;7.20;3.43;;;17.80;99.90;;;;;;5020053;28;20955;-46
2021/08/16 00:52:06;;;;;;;7.93;3.47;;;17.70;99.90;;;;;;5024216;28;20196;-46
2021/08/16 00:54:32;;;;;;;11.37;4.00;;;17.70;99.90;;;;;;5020638;28;20565;-50
2021/08/16 00:57:00;;;;;;;4.53;3.17;;;17.70;99.90;;;;;;5019422;28;20214;-45
2021/08/16 00:59:27;;;;;;;8.27;3.80;;;17.70;99.90;;;;;;5020989;28;20554;-46
2021/08/16 01:01:54;;;;;;;4.43;3.40;;;17.60;99.90;;;;;;5006642;28;20204;-45
2021/08/16 01:04:20;;;;;;;8.27;3.97;;;17.60;99.90;;;;;;5022871;28;20207;-47
2021/08/16 01:06:47;;;;;;;4.17;3.37;;;17.60;99.90;;;;;;5021235;28;20212;-45
2021/08/16 01:09:16;;;;;;;8.20;3.70;;;17.50;99.90;;;;;;5023549;28;20208;-46
2021/08/16 01:11:43;;;;;;;6.80;4.20;;;17.50;99.90;;;;;;5016350;28;20200;-46
2021/08/16 01:14:10;;;;;;;5.77;3.67;;;17.50;99.90;;;;;;5023379;28;20214;-46
2021/08/16 01:16:36;;;;;;;4.27;3.43;;;17.40;99.90;;;;;;5004009;28;20208;-48
2021/08/16 01:19:03;;;;;;;5.10;3.73;;;17.40;99.90;;;;;;5023318;28;20689;-47
2021/08/16 01:21:30;;;;;;;5.60;3.57;;;17.40;99.90;;;;;;5020323;28;20200;-47
2021/08/16 01:23:56;;;;;;;6.03;3.73;;;17.30;99.90;;;;;;5023261;28;20211;-46
2021/08/16 01:26:25;;;;;;;6.17;3.47;;;17.30;99.90;;;;;;5020986;28;20203;-46
2021/08/16 01:28:53;;;;;;;5.67;3.47;;;17.30;99.90;;;;;;5019222;28;20224;-46
2021/08/16 01:31:20;;;;;;;7.30;3.57;;;17.30;99.90;;;;;;5022428;28;20283;-46
2021/08/16 01:33:46;;;;;;;5.67;3.17;;;17.30;99.90;;;;;;5005446;28;20207;-48
2021/08/16 01:36:13;;;;;;;7.90;3.53;;;17.30;99.90;;;;;;5014669;28;20211;-46
2021/08/16 01:38:42;;;;;;;5.43;3.07;;;17.30;99.90;;;;;;5021779;28;20192;-47
2021/08/16 01:41:09;;;;;;;6.77;3.27;;;17.30;99.90;;;;;;5017110;28;20621;-46
2021/08/16 01:43:36;;;;;;;5.40;3.57;;;17.30;99.90;;;;;;5017082;28;20267;-48
2021/08/16 01:46:04;;;;;;;3.93;3.30;;;17.20;99.90;;;;;;5021378;28;20192;-48
2021/08/16 01:48:32;;;;;;;7.53;3.53;;;17.20;99.90;;;;;;5004484;28;20204;-46
2021/08/16 01:50:59;;;;;;;7.20;2.90;;;17.10;99.90;;;;;;5023381;28;20220;-47
2021/08/16 01:53:26;;;;;;;5.67;3.10;;;17.10;99.90;;;;;;5019616;28;20223;-50
2021/08/16 01:55:52;;;;;;;5.17;3.37;;;17.10;99.90;;;;;;5019297;28;20223;-47
2021/08/16 01:58:19;;;;;;;5.87;3.23;;;17.00;99.90;;;;;;5016821;28;20196;-48
2021/08/16 02:00:45;;;;;;;5.50;3.47;;;17.00;99.90;;;;;;5021990;28;20220;-48
2021/08/16 02:03:13;;;;;;;5.70;3.00;;;16.90;99.90;;;;;;5013999;28;20557;-45
2021/08/16 02:05:41;;;;;;;5.63;3.80;;;16.90;99.90;;;;;;5016757;28;20203;-49
2021/08/16 02:08:08;;;;;;;7.00;3.90;;;16.80;99.90;;;;;;5022383;28;20223;-48
2021/08/16 02:10:34;;;;;;;7.87;3.47;;;16.80;99.90;;;;;;5020649;28;20372;-46
2021/08/16 02:13:01;;;;;;;7.20;3.53;;;16.80;99.90;;;;;;5023554;28;20207;-48
2021/08/16 02:15:28;;;;;;;6.43;3.47;;;16.80;99.90;;;;;;5014382;28;20424;-49
2021/08/16 02:17:55;;;;;;;5.10;3.93;;;16.80;99.90;;;;;;5025264;28;20669;-46
2021/08/16 02:20:23;;;;;;;6.10;3.70;;;16.70;99.90;;;;;;5006634;28;20215;-49
2021/08/16 02:22:50;;;;;;;5.30;3.73;;;16.70;99.90;;;;;;5027045;28;20454;-45
2021/08/16 02:25:16;;;;;;;4.63;3.30;;;16.60;99.90;;;;;;5024690;28;20658;-45
2021/08/16 02:27:45;;;;;;;4.40;3.40;;;16.60;99.90;;;;;;5026524;28;20192;-47
2021/08/16 02:30:14;;;;;;;5.07;4.00;;;16.50;99.90;;;;;;5019887;28;20234;-47
2021/08/16 02:32:40;;;;;;;7.10;3.77;;;16.50;99.90;;;;;;5026255;28;20823;-47
2021/08/16 02:35:08;;;;;;;3.90;3.57;;;16.50;99.90;;;;;;5022471;28;20200;-48
2021/08/16 02:37:36;;;;;;;5.97;3.60;;;16.50;99.90;;;;;;5014260;28;20204;-46
2021/08/16 02:40:03;;;;;;;8.70;3.60;;;16.40;99.90;;;;;;5026674;28;20712;-46
2021/08/16 02:42:30;;;;;;;8.77;3.50;;;16.40;99.90;;;;;;5023426;28;20188;-46
2021/08/16 02:44:57;;;;;;;6.50;3.47;;;16.30;99.90;;;;;;5026451;28;20597;-45
2021/08/16 02:47:23;;;;;;;5.53;3.37;;;16.40;99.90;;;;;;5018122;28;20207;-46
2021/08/16 02:49:50;;;;;;;5.63;3.40;;;16.30;99.90;;;;;;5026293;28;20235;-46
2021/08/16 02:52:17;;;;;;;5.13;3.33;;;16.30;99.90;;;;;;5007741;28;20675;-47
2021/08/16 02:54:46;;;;;;;7.13;3.70;;;16.30;99.90;;;;;;5026003;28;20200;-45
2021/08/16 02:57:13;;;;;;;5.23;3.33;;;16.20;99.90;;;;;;5024424;28;20199;-47
2021/08/16 02:59:40;;;;;;;9.77;3.97;;;16.30;99.90;;;;;;5024392;28;20204;-46
2021/08/16 03:02:07;;;;;;;7.10;4.47;;;16.30;99.90;;;;;;5021169;28;20843;-47
2021/08/16 03:04:34;;;;;;;6.00;4.03;;;16.30;99.90;;;;;;5022954;28;20199;-46
2021/08/16 03:07:01;;;;;;;7.47;4.00;;;16.30;99.90;;;;;;5010491;28;20231;-46
2021/08/16 03:09:28;;;;;;;6.03;4.40;;;16.30;99.90;;;;;;5021849;28;20789;-47
2021/08/16 03:11:57;;;;;;;6.03;4.07;;;16.30;99.90;;;;;;5026620;28;20280;-46
2021/08/16 03:14:23;;;;;;;8.40;4.03;;;16.30;99.90;;;;;;5021179;28;20203;-47
2021/08/16 03:16:50;;;;;;;7.97;4.87;;;16.30;99.90;;;;;;5021442;28;20212;-46
2021/08/16 03:19:17;;;;;;;4.67;3.97;;;16.30;99.90;;;;;;5022938;28;20216;-45
2021/08/16 03:21:43;;;;;;;12.00;5.13;;;16.30;99.90;;;;;;5024531;28;20657;-47
2021/08/16 03:24:11;;;;;;;6.53;4.50;;;16.30;99.90;;;;;;5008989;28;20223;-47
2021/08/16 03:26:37;;;;;;;8.50;4.10;;;16.30;99.90;;;;;;5023676;28;20192;-46
2021/08/16 03:29:05;;;;;;;6.07;4.43;;;16.40;99.90;;;;;;5024248;28;20204;-46
2021/08/16 03:31:32;;;;;;;6.57;4.63;;;16.40;99.90;;;;;;5017668;28;20938;-50
2021/08/16 03:33:59;;;;;;;8.33;4.93;;;16.40;99.90;;;;;;5026099;28;20196;-47
2021/08/16 03:36:25;;;;;;;7.37;4.63;;;16.40;99.90;;;;;;5021622;28;20184;-46
2021/08/16 03:38:52;;;;;;;6.70;4.60;;;16.40;99.90;;;;;;5010024;28;20262;-49
2021/08/16 03:41:19;;;;;;;6.17;5.10;;;16.40;99.90;;;;;;5022418;28;20200;-49
2021/08/16 03:43:45;;;;;;;8.00;4.97;;;16.40;99.90;;;;;;5025111;28;20242;-46
2021/08/16 03:46:13;;;;;;;6.90;4.40;;;16.40;99.90;;;;;;5022209;28;20200;-50
2021/08/16 03:48:40;;;;;;;8.63;4.90;;;16.50;99.90;;;;;;5021098;28;20192;-46
2021/08/16 03:51:07;;;;;;;8.43;6.90;;;16.50;99.90;;;;;;5024714;28;20226;-48
2021/08/16 03:53:33;;;;;;;13.57;6.43;;;16.50;99.90;;;;;;5007309;28;20208;-46
2021/08/16 03:56:00;;;;;;;11.00;6.13;;;16.50;99.90;;;;;;5025815;28;20564;-45
2021/08/16 03:58:27;;;;;;;7.00;5.60;;;16.50;99.90;;;;;;5021794;28;20887;-47
2021/08/16 04:00:53;;;;;;;7.00;5.20;;;16.50;99.90;;;;;;5024893;28;20216;-46
2021/08/16 04:03:21;;;;;;;8.40;5.33;;;16.50;99.90;;;;;;5017445;28;20218;-47
2021/08/16 04:05:48;;;;;;;7.97;6.00;;;16.40;99.90;;;;;;5025437;28;20227;-46
2021/08/16 04:08:15;;;;;;;7.57;5.53;;;16.40;99.90;;;;;;5013431;28;20194;-48
2021/08/16 04:10:42;;;;;;;11.43;6.37;;;16.50;99.90;;;;;;5018876;28;20311;-48
2021/08/16 04:13:09;;;;;;;10.30;6.23;;;16.50;99.90;;;;;;5024325;28;20192;-49
2021/08/16 04:15:35;;;;;;;11.10;6.23;;;16.40;99.90;;;;;;5022122;28;20202;-48
2021/08/16 04:18:02;;;;;;;9.30;6.40;;;16.40;99.90;;;;;;5025200;28;20546;-48
2021/08/16 04:20:30;;;;;;;7.20;6.17;;;16.40;99.90;;;;;;5015960;28;20226;-46
2021/08/16 04:22:57;;;;;;;9.33;6.17;;;16.40;99.90;;;;;;5025181;28;20606;-46
2021/08/16 04:25:23;;;;;;;9.43;6.57;;;16.40;99.90;;;;;;5004976;28;20207;-47
2021/08/16 04:27:51;;;;;;;10.20;7.83;;;16.40;99.90;;;;;;5024741;28;20565;-45
2021/08/16 04:30:18;;;;;;;12.17;7.63;;;16.40;99.90;;;;;;5021328;28;20223;-45
2021/08/16 04:32:44;;;;;;;8.57;7.00;;;16.40;99.90;;;;;;5024118;28;20194;-45
2021/08/16 04:35:11;;;;;;;14.43;8.27;;;16.50;99.90;;;;;;5018610;28;20215;-46
2021/08/16 04:37:41;;;;;;;10.90;7.13;;;16.50;99.90;;;;;;5022532;28;20427;-47
2021/08/16 04:40:09;;;;;;;15.33;7.47;;;16.50;99.90;;;;;;5007702;28;20219;-49
2021/08/16 04:42:37;;;;;;;12.00;8.87;;;16.50;99.90;;;;;;5022008;28;20196;-46
2021/08/16 04:45:04;;;;;;;13.70;7.87;;;16.50;99.90;;;;;;5024058;28;20208;-46
2021/08/16 04:47:30;;;;;;;11.33;8.20;;;16.50;99.90;;;;;;5020702;28;20192;-45
2021/08/16 04:49:57;;;;;;;11.30;7.90;;;16.50;99.90;;;;;;5019398;28;20230;-45
2021/08/16 04:52:24;;;;;;;11.30;7.40;;;16.50;99.90;;;;;;5020409;28;20196;-46
2021/08/16 04:54:52;;;;;;;13.87;8.07;;;16.50;99.90;;;;;;5024315;28;20199;-47
2021/08/16 04:57:31;;;;;;;17.07;10.23;;;16.50;99.90;;;;;;5005490;28;20211;-49
2021/08/16 04:59:58;;;;;;;14.90;8.53;;;16.50;99.90;;;;;;5023778;28;20223;-46
2021/08/16 05:02:25;;;;;;;11.03;7.83;;;16.50;99.90;;;;;;5020204;28;20180;-47
2021/08/16 05:04:55;;;;;;;12.20;9.00;;;16.50;99.90;;;;;;5019851;28;20569;-45
2021/08/16 05:07:23;;;;;;;11.43;9.50;;;16.50;99.90;;;;;;5020375;28;20192;-49
2021/08/16 05:09:50;;;;;;;13.50;9.43;;;16.50;99.90;;;;;;5023950;28;20215;-46
2021/08/16 05:12:18;;;;;;;13.87;9.57;;;16.50;99.90;;;;;;5005985;28;20207;-48
2021/08/16 05:14:44;;;;;;;14.77;10.37;;;16.50;99.90;;;;;;5023275;28;20662;-45
2021/08/16 05:17:11;;;;;;;14.33;9.50;;;16.50;99.90;;;;;;5021904;28;20196;-45
2021/08/16 05:19:38;;;;;;;11.60;9.83;;;16.50;99.90;;;;;;5021891;28;20219;-46
2021/08/16 05:22:07;;;;;;;16.37;10.10;;;16.50;99.90;;;;;;5001051;28;20207;-49
2021/08/16 05:24:34;;;;;;;15.60;9.33;;;16.50;99.90;;;;;;5020824;28;20196;-48
2021/08/16 05:27:01;;;;;;;13.40;9.83;;;16.60;99.90;;;;;;5008069;28;20211;-45
2021/08/16 05:29:29;;;;;;;16.47;9.73;;;16.60;99.90;;;;;;5019302;28;20273;-47
2021/08/16 05:31:55;;;;;;;25.63;10.37;;;16.60;99.90;;;;;;5014876;28;20231;-45
2021/08/16 05:34:22;;;;;;;13.90;9.70;;;16.60;99.90;;;;;;5013818;28;21385;-47
2021/08/16 05:36:49;;;;;;;14.93;8.93;;;16.60;99.90;;;;;;5017372;28;20208;-49
2021/08/16 05:39:16;;;;;;;14.23;8.60;;;16.70;99.90;;;;;;5019514;28;20215;-45
2021/08/16 05:41:42;;;;;;;15.33;9.10;;;16.70;99.90;;;;;;5020783;28;20674;-47
2021/08/16 05:44:09;;;;;;;18.90;8.87;;;16.60;99.90;;;;;;5001885;28;20196;-47
2021/08/16 05:46:37;;;;;;;16.40;9.40;;;16.70;99.90;;;;;;5014561;28;20200;-47
2021/08/16 05:49:03;;;;;;;14.03;8.37;;;16.70;99.90;;;;;;5018123;28;20229;-47
2021/08/16 05:51:30;;;;;;;16.17;8.77;;;16.70;99.90;;;;;;5018777;28;20230;-46
2021/08/16 05:53:56;;;;;;;21.80;9.33;;;16.70;99.90;;;;;;5027170;28;20200;-48
2021/08/16 05:56:23;;;;;;;17.10;8.73;;;16.60;99.90;;;;;;5027915;28;20676;-46
2021/08/16 05:58:50;;;;;;;21.40;9.50;;;16.70;99.90;;;;;;5012265;28;20219;-47
2021/08/16 06:01:16;;;;;;;21.17;9.23;;;16.70;99.90;;;;;;5024403;28;20218;-46
2021/08/16 06:03:44;;;;;;;16.37;8.93;;;16.70;99.90;;;;;;5028813;28;20203;-47
2021/08/16 06:06:11;;;;;;;17.73;9.47;;;16.70;99.90;;;;;;5020768;28;21669;-48
2021/08/16 06:08:38;;;;;;;13.57;8.17;;;16.80;99.90;;;;;;5022990;28;20210;-47
2021/08/16 06:11:04;;;;;;;15.67;8.57;;;16.80;99.90;;;;;;5024856;28;20211;-45
2021/08/16 06:13:31;;;;;;;15.10;9.10;;;16.80;99.90;;;;;;5013620;28;20285;-45
2021/08/16 06:15:58;;;;;;;16.17;8.27;;;16.80;99.90;;;;;;5026225;28;20573;-47
2021/08/16 06:18:25;;;;;;;17.00;8.40;;;16.80;99.90;;;;;;5028657;28;20622;-46
2021/08/16 06:20:54;;;;;;;13.07;8.50;;;16.80;99.90;;;;;;5026133;28;20215;-47
2021/08/16 06:23:20;;;;;;;11.20;7.43;;;16.80;99.90;;;;;;5018966;28;20206;-46
2021/08/16 06:25:47;;;;;;;11.10;7.77;;;16.90;99.90;;;;;;5025701;28;20529;-48
2021/08/16 06:28:14;;;;;;;16.60;9.67;;;16.90;99.90;;;;;;5011106;28;20222;-46
2021/08/16 06:30:40;;;;;;;13.97;7.90;;;16.90;99.90;;;;;;5028479;28;20224;-47
2021/08/16 06:33:07;;;;;;;12.37;7.23;;;17.00;99.90;;;;;;5025460;28;20202;-45
2021/08/16 06:35:36;;;;;;;14.97;7.87;;;17.00;99.90;;;;;;5028816;28;20188;-46
2021/08/16 06:38:09;;;;;;;19.13;8.33;;;17.00;99.90;;;;;;5020459;28;20283;-48
2021/08/16 06:40:37;;;;;;;11.37;7.80;;;17.00;99.90;;;;;;5028593;28;20224;-46
2021/08/16 06:43:05;;;;;;;14.17;8.07;;;17.00;99.90;;;;;;5025406;28;20215;-46
2021/08/16 06:45:31;;;;;;;10.77;7.33;;;17.10;99.90;;;;;;5008108;28;20208;-45
2021/08/16 06:47:59;;;;;;;12.13;8.57;;;17.10;99.90;;;;;;5024533;28;20200;-47
2021/08/16 06:50:25;;;;;;;12.17;8.27;;;17.10;99.90;;;;;;5027326;28;20238;-48
2021/08/16 06:52:52;;;;;;;10.37;7.13;;;17.10;99.90;;;;;;5025030;28;20215;-45
2021/08/16 06:55:20;;;;;;;15.83;8.50;;;17.10;99.90;;;;;;5023633;28;20200;-47
2021/08/16 06:57:47;;;;;;;15.53;8.60;;;17.10;99.90;;;;;;5027954;28;20207;-47
2021/08/16 07:00:15;;;;;;;14.67;8.93;;;17.10;99.90;;;;;;5009425;28;20223;-46
2021/08/16 07:02:41;;;;;;;13.00;8.40;;;17.00;99.90;;;;;;5018054;28;20963;-46
2021/08/16 07:05:09;;;;;;;14.53;7.40;;;17.10;99.90;;;;;;5019095;28;20207;-47
2021/08/16 07:07:36;;;;;;;17.00;8.23;;;17.10;99.90;;;;;;5019506;28;20700;-47
2021/08/16 07:10:04;;;;;;;14.67;7.60;;;17.10;99.90;;;;;;5019774;28;20232;-45
2021/08/16 07:12:32;;;;;;;14.93;8.83;;;17.10;99.90;;;;;;5019583;28;20216;-46
2021/08/16 07:14:58;;;;;;;12.00;7.17;;;17.20;99.90;;;;;;5021429;28;20204;-45
2021/08/16 07:17:25;;;;;;;12.57;6.70;;;17.20;99.90;;;;;;5012465;28;20204;-48
2021/08/16 07:19:51;;;;;;;12.17;6.83;;;17.20;99.90;;;;;;5025601;28;20302;-46
2021/08/16 07:22:18;;;;;;;12.77;6.97;;;17.20;99.90;;;;;;5017279;28;20184;-47
2021/08/16 07:24:45;;;;;;;12.73;8.27;;;17.20;99.90;;;;;;5021732;28;20212;-49
2021/08/16 07:27:12;;;;;;;18.30;6.60;;;17.30;99.90;;;;;;5009617;28;20208;-47
2021/08/16 07:29:40;;;;;;;11.43;6.17;;;17.30;99.90;;;;;;5023278;28;20598;-48
2021/08/16 07:32:07;;;;;;;14.67;6.60;;;17.20;99.90;;;;;;5002597;28;20215;-45
2021/08/16 07:34:36;;;;;;;14.77;5.87;;;17.20;99.90;;;;;;5023536;28;20208;-47
2021/08/16 07:37:04;;;;;;;16.60;7.30;;;17.20;99.90;;;;;;5022763;28;20204;-49
2021/08/16 07:39:31;;;;;;;11.53;5.90;;;17.20;99.90;;;;;;5019287;28;20495;-46
2021/08/16 07:41:57;;;;;;;14.13;6.80;;;17.30;99.90;;;;;;5018727;28;20215;-46
2021/08/16 07:44:24;;;;;;;14.23;5.77;;;17.20;99.90;;;;;;5013484;28;20200;-50
2021/08/16 07:46:52;;;;;;;13.63;6.73;;;17.10;99.90;;;;;;5020645;28;20192;-46
2021/08/16 07:49:19;;;;;;;11.23;6.03;;;17.00;99.90;;;;;;5007023;28;20223;-47
2021/08/16 07:51:46;;;;;;;11.10;6.87;;;16.90;99.90;;;;;;5024921;28;20701;-49
2021/08/16 07:54:12;;;;;;;16.47;7.17;;;16.90;99.90;;;;;;5015852;28;20192;-49
2021/08/16 07:56:39;;;;;;;16.33;8.10;;;16.90;99.90;;;;;;5018263;28;20200;-45
2021/08/16 07:59:06;;;;;;;12.87;6.93;;;17.00;99.90;;;;;;5022494;28;20748;-46
2021/08/16 08:01:32;;;;;;;13.97;6.50;;;16.90;99.90;;;;;;5023156;28;20196;-45
2021/08/16 08:04:00;;;;;;;16.70;7.27;;;17.00;99.90;;;;;;5004953;28;20573;-46
2021/08/16 08:06:28;;;;;;;12.30;7.23;;;16.90;99.90;;;;;;5019263;28;20211;-47
2021/08/16 08:08:54;;;;;;;20.10;7.67;;;17.00;99.90;;;;;;5024354;28;20662;-45
2021/08/16 08:11:21;;;;;;;14.30;6.90;;;17.00;99.90;;;;;;5012107;28;20953;-46
2021/08/16 08:13:48;;;;;;;12.43;6.77;;;16.90;99.90;;;;;;5015438;28;20203;-46
2021/08/16 08:16:14;;;;;;;14.47;5.60;;;16.80;99.90;;;;;;5023148;28;20211;-49
2021/08/16 08:18:41;;;;;;;13.10;5.57;;;16.80;99.90;;;;;;5004920;28;20211;-47
2021/08/16 08:21:09;;;;;;;8.23;4.30;;;16.60;99.90;;;;;;5023837;28;20192;-46
2021/08/16 08:23:36;;;;;;;8.23;4.83;;;16.70;99.90;;;;;;5020903;28;20226;-46
2021/08/16 08:26:03;;;;;;;4.50;3.03;;;16.60;99.90;;;;;;5015133;28;20192;-46
2021/08/16 08:28:30;;;;;;;6.63;3.40;;;16.50;99.90;;;;;;5019315;28;20207;-47
2021/08/16 08:30:56;;;;;;;2.93;2.47;;;16.50;99.90;;;;;;5020140;28;20897;-47
2021/08/16 08:33:23;;;;;;;2.93;2.50;;;16.50;99.90;;;;;;5002650;28;20216;-44
2021/08/16 08:35:51;;;;;;;7.23;2.73;;;16.50;99.90;;;;;;5017668;28;20192;-45
2021/08/16 08:38:19;;;;;;;4.87;2.50;;;16.50;99.90;;;;;;5024682;28;20249;-45
2021/08/16 08:40:46;;;;;;;4.20;2.90;;;16.50;99.90;;;;;;5014938;28;20231;-47
2021/08/16 08:43:15;;;;;;;8.10;2.67;;;16.50;99.90;;;;;;5024645;28;20192;-45
2021/08/16 08:45:43;;;;;;;3.83;2.30;;;16.60;99.90;;;;;;5020622;28;20692;-46
2021/08/16 08:48:10;;;;;;;3.30;2.80;;;16.70;99.90;;;;;;5005084;28;20236;-46
2021/08/16 08:50:39;;;;;;;4.50;3.40;;;16.80;99.90;;;;;;5017680;28;20753;-45
2021/08/16 08:53:05;;;;;;;6.90;3.77;;;16.90;99.90;;;;;;4986451;28;20616;-45
2021/08/16 08:55:33;;;;;;;5.37;4.03;;;17.00;99.90;;;;;;5002785;28;20279;-47
2021/08/16 08:58:02;;;;;;;8.77;3.60;;;17.00;99.90;;;;;;5019120;28;20908;-48
2021/08/16 09:00:29;;;;;;;5.80;3.77;;;17.10;99.90;;;;;;5022842;28;20223;-47
2021/08/16 09:02:57;;;;;;;7.67;4.73;;;17.10;99.90;;;;;;5020944;28;20192;-46
2021/08/16 09:05:23;;;;;;;7.63;4.20;;;17.10;99.90;;;;;;5001082;28;20285;-45
2021/08/16 09:07:50;;;;;;;5.97;4.80;;;17.10;99.90;;;;;;5019830;28;20200;-45
2021/08/16 09:10:18;;;;;;;8.53;4.40;;;17.20;99.90;;;;;;5024115;28;20223;-47
2021/08/16 09:12:46;;;;;;;8.93;4.90;;;17.30;99.90;;;;;;5015239;28;20816;-46
2021/08/16 09:15:17;;;;;;;10.27;5.30;;;17.40;99.90;;;;;;5023886;28;20216;-47
2021/08/16 09:17:44;;;;;;;7.67;6.77;;;17.50;99.90;;;;;;5019478;28;20235;-45
2021/08/16 09:20:16;;;;;;;10.10;6.33;;;17.50;99.90;;;;;;5000462;28;20216;-45
2021/08/16 09:22:43;;;;;;;6.33;5.30;;;17.50;99.90;;;;;;5020209;28;20196;-45
2021/08/16 09:25:11;;;;;;;10.67;6.67;;;17.50;99.90;;;;;;5023791;28;20578;-45
2021/08/16 09:27:46;;;;;;;11.40;7.60;;;17.50;99.90;;;;;;5015512;28;20211;-46
2021/08/16 09:30:14;;;;;;;17.83;9.73;;;17.50;99.90;;;;;;5023150;28;20269;-45
2021/08/16 09:32:43;;;;;;;12.70;8.47;;;17.40;99.90;;;;;;5020248;28;20227;-45
2021/08/16 09:35:12;;;;;;;16.60;10.57;;;17.30;99.90;;;;;;5004729;28;20208;-47
2021/08/16 09:37:40;;;;;;;12.83;7.87;;;17.20;99.90;;;;;;5017346;28;20196;-47
2021/08/16 09:40:10;;;;;;;13.97;8.63;;;17.20;99.90;;;;;;5022620;28;20712;-45
2021/08/16 09:42:46;;;;;;;11.33;7.93;;;17.20;99.90;;;;;;5016074;28;20192;-48
2021/08/16 09:45:14;;;;;;;9.10;7.63;;;17.10;99.90;;;;;;5023234;28;20381;-45
2021/08/16 09:47:46;;;;;;;9.73;8.60;;;17.00;99.90;;;;;;5019834;28;20670;-45
2021/08/16 09:50:13;;;;;;;12.30;7.83;;;17.00;99.90;;;;;;5003883;28;20221;-44
2021/08/16 09:52:40;;;;;;;10.50;9.17;;;16.90;99.90;;;;;;5017251;28;20306;-47
2021/08/16 09:55:08;;;;;;;13.33;9.70;;;16.90;99.90;;;;;;5023288;28;20574;-48
2021/08/16 09:57:35;;;;;;;12.43;9.33;;;16.90;99.90;;;;;;5020026;28;20202;-49
2021/08/16 10:00:04;;;;;;;14.13;9.17;;;16.90;99.90;;;;;;5019116;28;20299;-49
2021/08/16 10:02:32;;;;;;;6.93;6.30;;;16.90;99.90;;;;;;5022142;28;20226;-49
2021/08/16 10:04:59;;;;;;;11.03;6.70;;;16.80;99.90;;;;;;5021969;28;20188;-48
2021/08/16 10:07:28;;;;;;;10.00;7.17;;;16.70;99.90;;;;;;5000064;28;20571;-47
2021/08/16 10:09:59;;;;;;;10.60;7.17;;;16.70;99.90;;;;;;5020437;28;20246;-45
2021/08/16 10:12:26;;;;;;;3.97;3.57;;;16.70;99.90;;;;;;5023181;28;20219;-46
2021/08/16 10:14:55;;;;;;;5.77;4.77;;;16.70;99.90;;;;;;5015288;28;20259;-46
2021/08/16 10:17:27;;;;;;;6.73;4.37;;;16.70;99.90;;;;;;5023566;28;20534;-45
2021/08/16 10:19:55;;;;;;;5.30;3.77;;;16.70;99.90;;;;;;5020200;28;20238;-46
2021/08/16 10:22:22;;;;;;;5.00;4.13;;;16.60;99.90;;;;;;5000746;28;20558;-47
2021/08/16 10:24:49;;;;;;;4.03;3.60;;;16.60;99.90;;;;;;5019227;28;20188;-46
2021/08/16 10:27:15;;;;;;;4.73;3.43;;;16.60;99.90;;;;;;5023540;28;20199;-46
2021/08/16 10:29:42;;;;;;;6.83;3.27;;;16.70;99.90;;;;;;5014486;28;20235;-47
2021/08/16 10:32:18;;;;;;;3.93;3.23;;;16.70;99.90;;;;;;5023223;28;20689;-50
2021/08/16 10:34:47;;;;;;;5.60;3.70;;;16.70;99.90;;;;;;5018890;28;20196;-45
2021/08/16 10:37:16;;;;;;;5.00;4.20;;;16.70;99.90;;;;;;5000522;28;20617;-49
2021/08/16 10:39:45;;;;;;;3.40;3.10;;;16.70;99.90;;;;;;5021796;28;20286;-47
2021/08/16 10:42:13;;;;;;;4.37;3.70;;;16.70;99.90;;;;;;5027156;28;20658;-45
2021/08/16 10:44:42;;;;;;;8.90;5.83;;;16.70;99.90;;;;;;5020055;28;20200;-46
2021/08/16 10:47:10;;;;;;;4.37;3.97;;;16.70;99.90;;;;;;5026119;28;20207;-47
2021/08/16 10:49:38;;;;;;;5.67;4.40;;;16.70;99.90;;;;;;5024024;28;20216;-47
2021/08/16 10:52:19;;;;;;;4.20;3.20;;;16.70;99.90;;;;;;5007072;28;20221;-48
2021/08/16 10:54:46;;;;;;;4.37;3.57;;;16.70;99.90;;;;;;5020258;28;20515;-46
2021/08/16 10:57:12;;;;;;;3.50;3.20;;;16.70;99.90;;;;;;5026658;28;20225;-46
2021/08/16 10:59:39;;;;;;;2.67;2.43;;;16.70;99.90;;;;;;5019894;28;20206;-47
2021/08/16 11:02:06;;;;;;;2.87;2.43;;;16.70;99.90;;;;;;5024494;28;20282;-48
2021/08/16 11:04:34;;;;;;;4.13;2.80;;;16.60;99.90;;;;;;5025205;28;20196;-48
2021/08/16 11:07:03;;;;;;;2.83;2.40;;;16.60;99.90;;;;;;5007169;28;20889;-46
2021/08/16 11:09:33;;;;;;;3.73;1.80;;;16.60;99.90;;;;;;5020903;28;20706;-46
2021/08/16 11:12:04;;;;;;;2.60;1.70;;;16.60;99.90;;;;;;5024523;28;20419;-47
2021/08/16 11:14:33;;;;;;;2.70;1.97;;;16.50;99.90;;;;;;5024946;28;20204;-46
2021/08/16 11:17:00;;;;;;;3.07;1.80;;;16.50;99.90;;;;;;5019224;28;20203;-45
2021/08/16 11:19:28;;;;;;;3.60;1.63;;;16.40;99.90;;;;;;5025247;28;20212;-46
2021/08/16 11:21:59;;;;;;;6.33;2.30;;;16.30;99.90;;;;;;5023310;28;20982;-47
2021/08/16 11:24:28;;;;;;;1.93;1.80;;;16.20;99.90;;;;;;5009926;28;20214;-49
2021/08/16 11:26:56;;;;;;;2.77;2.00;;;16.20;99.90;;;;;;5022698;28;20204;-45
2021/08/16 11:29:24;;;;;;;2.87;1.70;;;16.20;99.90;;;;;;5025361;28;20760;-45
2021/08/16 11:31:52;;;;;;;2.40;1.87;;;16.20;99.90;;;;;;5017150;28;20219;-45
2021/08/16 11:34:18;;;;;;;6.03;2.60;;;16.30;99.90;;;;;;5025911;28;20195;-48
2021/08/16 11:36:45;;;;;;;6.30;2.43;;;16.30;99.90;;;;;;5021568;28;20199;-46
2021/08/16 11:39:12;;;;;;;5.40;2.50;;;16.40;99.90;;;;;;5005613;28;20216;-46
2021/08/16 11:41:38;;;;;;;2.63;2.43;;;16.40;99.90;;;;;;5018989;28;20203;-47
2021/08/16 11:44:13;;;;;;;3.93;2.07;;;16.40;99.90;;;;;;5024551;28;20199;-47
2021/08/16 11:46:40;;;;;;;4.03;2.53;;;16.40;99.90;;;;;;5016813;28;20211;-45
2021/08/16 11:49:10;;;;;;;2.30;2.10;;;16.40;99.90;;;;;;5025052;28;20215;-45
2021/08/16 11:51:37;;;;;;;4.00;3.20;;;16.40;99.90;;;;;;5022028;28;20207;-47
2021/08/16 11:54:04;;;;;;;3.23;2.77;;;16.40;99.90;;;;;;5024402;28;20215;-45
2021/08/16 11:56:30;;;;;;;4.67;3.10;;;16.40;99.90;;;;;;5000731;28;20207;-47
2021/08/16 11:58:57;;;;;;;2.43;1.97;;;16.40;99.90;;;;;;5022472;28;20218;-46
2021/08/16 12:01:25;;;;;;;3.60;2.97;;;16.40;99.90;;;;;;5024754;28;20203;-45
2021/08/16 12:03:52;;;;;;;3.23;2.50;;;16.40;99.90;;;;;;5017072;28;20933;-45
2021/08/16 12:06:19;;;;;;;3.83;2.50;;;16.40;99.90;;;;;;5025228;28;20729;-45
2021/08/16 12:08:46;;;;;;;2.43;2.23;;;16.30;99.90;;;;;;5020752;28;20188;-44
2021/08/16 12:11:14;;;;;;;3.00;2.70;;;16.30;99.90;;;;;;5005620;28;20212;-45
2021/08/16 12:13:41;;;;;;;4.73;2.60;;;16.30;99.90;;;;;;5018305;28;20208;-45
2021/08/16 12:16:08;;;;;;;5.53;2.20;;;16.30;99.90;;;;;;5024575;28;20210;-45
2021/08/16 12:18:36;;;;;;;2.83;2.00;;;16.40;99.90;;;;;;5017464;28;20392;-45
2021/08/16 12:21:03;;;;;;;5.27;2.33;;;16.20;99.90;;;;;;5023496;28;20188;-45
2021/08/16 12:23:32;;;;;;;4.73;2.83;;;16.10;99.90;;;;;;5023806;28;20192;-44
2021/08/16 12:26:01;;;;;;;3.03;1.73;;;16.00;99.90;;;;;;5022837;28;20985;-46
2021/08/16 12:28:38;;;;;;;2.03;1.70;;;15.90;99.90;;;;;;5008069;28;20677;-46
2021/08/16 12:31:15;;;;;;;2.50;1.90;;;15.80;99.90;;;;;;5023694;28;20199;-45
2021/08/16 12:33:57;;;;;;;4.80;2.10;;;15.70;99.90;;;;;;5015911;28;20243;-44
2021/08/16 12:36:29;;;;;;;5.87;1.80;;;15.60;99.90;;;;;;5024034;28;20203;-45
2021/08/16 12:38:58;;;;;;;5.13;2.30;;;15.60;99.90;;;;;;5021107;28;20795;-44
2021/08/16 12:41:26;;;;;;;6.13;2.20;;;15.60;99.90;;;;;;5023932;28;20574;-45
2021/08/16 12:43:54;;;;;;;3.53;2.03;;;15.50;99.90;;;;;;4998298;28;20207;-45